ΕΜΥ, Εθνική Μετεωρολογική Υπηρεσία - Δελτία Καιρού, Προγνώσεις

ΑΕΡΟΝΑΥΤΙΛΙΑ

GREEK AIRPORTS CODES

LGRX 030350Z 00000KT 9999 SCT025 SCT070 14/12 Q1012=

EUROPEAN AIRPORTS CODES

LFPO 030430Z 23006KT CAVOK 01/00 Q1015 NOSIG=